createdAt,value
2023-01-31T00:00:33.692Z,100748.09
2023-01-31T00:03:03.731Z,100745.13
2023-01-31T00:05:33.743Z,100741.03
2023-01-31T00:08:03.880Z,100747.88
2023-01-31T00:10:33.920Z,100756.06
2023-01-31T00:13:04.096Z,100751.44
2023-01-31T00:15:32.782Z,100751.41
2023-01-31T00:18:01.004Z,100754.69
2023-01-31T00:20:29.309Z,100762.63
2023-01-31T00:22:58.988Z,100770.88
2023-01-31T00:25:26.375Z,100782.91
2023-01-31T00:27:54.727Z,100785.06
2023-01-31T00:30:23.185Z,100791.09
2023-01-31T00:32:51.645Z,100791.34
2023-01-31T00:35:20.431Z,100793.19
2023-01-31T00:37:48.575Z,100797.94
2023-01-31T00:45:03.511Z,100806.16
2023-01-31T00:47:31.970Z,100804.03
2023-01-31T00:50:01.781Z,100806.16
2023-01-31T00:52:32.109Z,100807.28
2023-01-31T00:55:02.103Z,100812.25
2023-01-31T00:57:31.754Z,100815.19
2023-01-31T01:00:00.522Z,100816.00
2023-01-31T01:02:29.000Z,100827.53
2023-01-31T01:04:57.413Z,100833.88
2023-01-31T01:07:26.004Z,100834.41
2023-01-31T01:09:54.551Z,100844.88
2023-01-31T01:12:23.119Z,100839.94
2023-01-31T01:14:51.287Z,100845.16
2023-01-31T01:17:19.686Z,100842.19
2023-01-31T01:19:48.179Z,100845.72
2023-01-31T01:22:17.335Z,100853.38
2023-01-31T01:24:46.708Z,100858.03
2023-01-31T01:27:16.479Z,100865.19
2023-01-31T01:29:44.915Z,100862.19
2023-01-31T01:32:13.599Z,100860.56
2023-01-31T01:34:41.974Z,100858.97
2023-01-31T01:37:12.100Z,100863.91
2023-01-31T01:39:42.082Z,100864.94
2023-01-31T01:42:19.686Z,100862.75
2023-01-31T01:44:59.286Z,100861.66
2023-01-31T01:47:45.542Z,100869.28
2023-01-31T01:50:39.684Z,100874.50
2023-01-31T01:53:28.731Z,100888.78
2023-01-31T01:56:19.880Z,100899.16
2023-01-31T01:59:06.735Z,100910.44
2023-01-31T02:01:39.719Z,100913.72
2023-01-31T02:04:20.867Z,100914.31
2023-01-31T02:06:49.764Z,100913.75
2023-01-31T02:09:48.822Z,100918.13
2023-01-31T02:12:19.576Z,100923.09
2023-01-31T02:14:51.245Z,100922.78
2023-01-31T02:17:21.281Z,100917.31
2023-01-31T02:20:33.304Z,100918.44
2023-01-31T02:23:49.190Z,100918.38
2023-01-31T02:27:10.773Z,100935.94
2023-01-31T02:30:22.998Z,100936.47
2023-01-31T02:33:42.833Z,100935.09
2023-01-31T02:37:07.400Z,100949.34
2023-01-31T02:40:34.697Z,100952.03
2023-01-31T02:44:11.723Z,100947.66
2023-01-31T02:47:12.778Z,100951.97
2023-01-31T02:50:20.730Z,100943.75
2023-01-31T02:53:19.021Z,100933.84
2023-01-31T02:56:18.054Z,100930.84
2023-01-31T02:59:22.242Z,100946.50
2023-01-31T03:02:03.458Z,100932.13
2023-01-31T03:04:36.913Z,100946.56
2023-01-31T03:07:29.511Z,100947.38
2023-01-31T03:10:37.638Z,100937.22
2023-01-31T03:13:25.438Z,100936.94
2023-01-31T03:16:47.092Z,100949.13
2023-01-31T03:19:28.807Z,100949.91
2023-01-31T03:22:16.433Z,100952.69
2023-01-31T03:24:52.132Z,100961.13
2023-01-31T03:27:24.361Z,100959.50
2023-01-31T03:30:09.943Z,100956.81
2023-01-31T03:33:00.844Z,100960.28
2023-01-31T03:35:40.068Z,100954.03
2023-01-31T03:38:30.657Z,100965.22
2023-01-31T03:41:24.425Z,100972.22
2023-01-31T03:44:24.372Z,100978.72
2023-01-31T03:47:10.027Z,100984.06
2023-01-31T03:49:46.103Z,100992.38
2023-01-31T03:52:33.954Z,100989.09
2023-01-31T03:55:19.531Z,100993.19
2023-01-31T03:57:56.901Z,100994.06
2023-01-31T04:00:28.417Z,100990.75
2023-01-31T04:03:28.736Z,101008.47
2023-01-31T04:05:59.075Z,101010.44
2023-01-31T04:08:32.296Z,101011.94
2023-01-31T04:11:14.170Z,101014.75
2023-01-31T04:13:44.257Z,101017.50
2023-01-31T04:16:14.741Z,101016.16
2023-01-31T04:18:44.802Z,101030.53
2023-01-31T04:21:15.476Z,101026.31
2023-01-31T04:23:45.469Z,101025.34
2023-01-31T04:26:15.870Z,101025.50
2023-01-31T04:28:45.987Z,101020.47
2023-01-31T04:31:16.263Z,101017.28
2023-01-31T04:33:46.430Z,101024.25
2023-01-31T04:36:16.603Z,101016.94
2023-01-31T04:38:46.672Z,101017.38
2023-01-31T04:41:16.723Z,101029.13
2023-01-31T04:43:46.901Z,101023.09
2023-01-31T04:46:16.902Z,101031.53
2023-01-31T04:48:46.997Z,101029.50
2023-01-31T04:51:17.005Z,101029.63
2023-01-31T04:53:47.023Z,101033.63
2023-01-31T04:56:17.027Z,101026.19
2023-01-31T04:59:16.130Z,101033.53
2023-01-31T05:01:46.287Z,101045.53
2023-01-31T05:04:16.497Z,101042.28
2023-01-31T05:06:46.505Z,101041.88
2023-01-31T05:09:18.015Z,101057.06
2023-01-31T05:11:48.186Z,101049.72
2023-01-31T05:14:21.107Z,101057.16
2023-01-31T05:16:51.316Z,101048.44
2023-01-31T05:19:21.327Z,101062.03
2023-01-31T05:22:00.574Z,101057.59
2023-01-31T05:24:34.299Z,101070.38
2023-01-31T05:27:04.689Z,101056.56
2023-01-31T05:29:35.076Z,101058.47
2023-01-31T05:32:06.012Z,101065.53
2023-01-31T05:34:36.655Z,101061.13
2023-01-31T05:37:06.201Z,101057.94
2023-01-31T05:39:36.625Z,101068.78
2023-01-31T05:42:10.336Z,101054.28
2023-01-31T05:44:37.771Z,101075.03
2023-01-31T05:47:07.466Z,101059.28
2023-01-31T05:49:37.361Z,101073.25
2023-01-31T05:52:07.219Z,101067.16
2023-01-31T05:54:36.933Z,101073.41
2023-01-31T05:57:07.628Z,101076.22
2023-01-31T05:59:36.766Z,101069.91
2023-01-31T06:02:06.605Z,101080.94
2023-01-31T06:04:36.118Z,101079.81
2023-01-31T06:07:05.903Z,101085.22
2023-01-31T06:09:38.739Z,101078.19
2023-01-31T06:12:17.409Z,101071.09
2023-01-31T06:14:46.177Z,101083.38
2023-01-31T06:17:16.652Z,101085.00
2023-01-31T06:19:45.004Z,101078.47
2023-01-31T06:22:12.908Z,101089.97
2023-01-31T06:24:41.370Z,101090.28
2023-01-31T06:27:10.228Z,101092.59
2023-01-31T06:29:38.283Z,101103.53
2023-01-31T06:32:06.685Z,101091.34
2023-01-31T06:34:35.028Z,101103.81
2023-01-31T06:37:03.436Z,101097.63
2023-01-31T06:39:31.791Z,101109.81
2023-01-31T06:42:00.260Z,101102.75
2023-01-31T06:44:28.605Z,101091.75
2023-01-31T06:46:57.305Z,101102.25
2023-01-31T06:49:25.465Z,101105.00
2023-01-31T06:51:54.349Z,101104.69
2023-01-31T06:54:22.372Z,101098.94
2023-01-31T06:56:50.718Z,101101.69
2023-01-31T06:59:19.126Z,101098.69
2023-01-31T07:01:47.573Z,101102.28
2023-01-31T07:04:15.981Z,101088.47
2023-01-31T07:06:44.356Z,101101.91
2023-01-31T07:09:13.068Z,101107.69
2023-01-31T07:11:41.288Z,101110.66
2023-01-31T07:14:09.735Z,101114.25
2023-01-31T07:16:38.285Z,101124.06
2023-01-31T07:19:06.561Z,101109.25
2023-01-31T07:21:36.744Z,101105.78
2023-01-31T07:24:06.984Z,101091.44
2023-01-31T07:26:35.120Z,101083.22
2023-01-31T07:29:02.867Z,101084.34
2023-01-31T07:31:31.705Z,101084.75
2023-01-31T07:34:00.361Z,101095.41
2023-01-31T07:36:28.174Z,101092.13
2023-01-31T07:39:00.020Z,101093.97
2023-01-31T07:41:27.884Z,101097.19
2023-01-31T07:43:56.345Z,101089.91
2023-01-31T07:46:24.703Z,101097.84
2023-01-31T07:48:53.215Z,101097.09
2023-01-31T07:51:21.495Z,101092.91
2023-01-31T07:53:49.937Z,101088.00
2023-01-31T07:56:21.773Z,101091.63
2023-01-31T07:58:51.473Z,101092.44
2023-01-31T08:01:44.867Z,101090.41
2023-01-31T08:04:21.478Z,101085.50
2023-01-31T08:06:56.308Z,101088.16
2023-01-31T08:09:25.946Z,101094.19
2023-01-31T08:11:55.778Z,101090.34
2023-01-31T08:14:26.304Z,101084.34
2023-01-31T08:16:56.701Z,101094.75
2023-01-31T08:19:26.973Z,101076.94
2023-01-31T08:21:56.967Z,101092.03
2023-01-31T08:24:26.975Z,101081.91
2023-01-31T08:26:58.434Z,101086.28
2023-01-31T08:29:28.029Z,101089.59
2023-01-31T08:32:01.856Z,101090.47
2023-01-31T08:34:31.569Z,101075.03
2023-01-31T08:37:01.352Z,101079.19
2023-01-31T08:39:31.072Z,101078.31
2023-01-31T08:42:00.783Z,101076.38
2023-01-31T08:44:30.547Z,101075.03
2023-01-31T08:47:02.346Z,101075.25
2023-01-31T08:49:36.352Z,101069.44
2023-01-31T08:52:06.400Z,101075.19
2023-01-31T08:54:36.930Z,101067.31
2023-01-31T08:57:07.005Z,101069.81
2023-01-31T08:59:37.218Z,101064.31
2023-01-31T09:02:11.197Z,101058.81
2023-01-31T09:04:38.798Z,101046.47
2023-01-31T09:07:07.227Z,101050.69
2023-01-31T09:09:35.760Z,101052.38
2023-01-31T09:12:05.642Z,101046.94
2023-01-31T09:14:33.624Z,101046.63
2023-01-31T09:17:03.540Z,101037.00
2023-01-31T09:19:33.804Z,101038.41
2023-01-31T09:22:03.824Z,101041.97
2023-01-31T09:24:33.868Z,101032.41
2023-01-31T09:27:05.399Z,101040.09
2023-01-31T09:29:35.525Z,101035.97
2023-01-31T09:32:05.840Z,101026.38
2023-01-31T09:34:35.871Z,101023.38
2023-01-31T09:37:05.870Z,101032.97
2023-01-31T09:39:36.482Z,101023.38
2023-01-31T09:42:25.571Z,101017.63
2023-01-31T09:45:13.269Z,101020.69
2023-01-31T09:47:56.060Z,101017.97
2023-01-31T09:50:58.596Z,101014.41
2023-01-31T09:53:39.537Z,101011.91
2023-01-31T09:56:13.630Z,101001.50
2023-01-31T09:59:34.569Z,100994.91
2023-01-31T10:02:28.509Z,100996.28
2023-01-31T10:05:33.247Z,100995.72
2023-01-31T10:08:44.448Z,101000.16
2023-01-31T10:11:43.472Z,100988.34
2023-01-31T10:14:47.802Z,100986.69
2023-01-31T10:17:45.851Z,100985.03
2023-01-31T10:20:47.918Z,100974.06
2023-01-31T10:23:45.002Z,100968.81
2023-01-31T10:26:36.877Z,100970.75
2023-01-31T10:29:31.941Z,100966.38
2023-01-31T10:32:19.740Z,100962.81
2023-01-31T10:35:25.043Z,100961.97
2023-01-31T10:38:12.366Z,100940.81
2023-01-31T10:40:55.414Z,100943.84
2023-01-31T10:43:46.747Z,100936.97
2023-01-31T10:46:16.114Z,100933.94
2023-01-31T10:48:48.352Z,100927.94
2023-01-31T10:52:08.735Z,100938.59
2023-01-31T10:55:10.050Z,100930.38
2023-01-31T10:57:39.526Z,100922.09
2023-01-31T11:00:21.863Z,100922.09
2023-01-31T11:02:50.300Z,100921.28
2023-01-31T11:05:27.527Z,100902.59
2023-01-31T11:08:18.017Z,100892.44
2023-01-31T11:10:58.702Z,100897.69
2023-01-31T11:13:28.699Z,100891.38
2023-01-31T11:16:03.117Z,100871.84
2023-01-31T11:18:49.615Z,100869.38
2023-01-31T11:21:27.431Z,100865.56
2023-01-31T11:24:21.229Z,100861.72
2023-01-31T11:27:01.184Z,100847.44
2023-01-31T11:29:49.982Z,100830.16
2023-01-31T11:32:35.258Z,100830.97
2023-01-31T11:35:33.419Z,100838.09
2023-01-31T11:38:24.524Z,100822.97
2023-01-31T11:40:54.570Z,100818.56
2023-01-31T11:43:31.178Z,100815.50
2023-01-31T11:46:03.774Z,100817.47
2023-01-31T11:48:45.862Z,100805.13
2023-01-31T11:51:31.894Z,100800.44
2023-01-31T11:54:05.787Z,100790.31
2023-01-31T11:56:38.584Z,100770.31
2023-01-31T11:59:21.669Z,100762.31
2023-01-31T12:01:59.014Z,100754.06
2023-01-31T12:04:43.103Z,100739.56
2023-01-31T12:07:31.520Z,100740.97
2023-01-31T12:10:01.628Z,100734.63
2023-01-31T12:12:36.382Z,100725.56
2023-01-31T12:15:17.367Z,100714.84
2023-01-31T12:17:51.169Z,100707.44
2023-01-31T12:21:06.680Z,100707.16
2023-01-31T12:24:00.747Z,100696.78
2023-01-31T12:27:06.059Z,100699.81
2023-01-31T12:29:56.424Z,100691.28
2023-01-31T12:32:58.867Z,100680.91
2023-01-31T12:36:02.943Z,100675.69
2023-01-31T12:39:28.700Z,100689.41
2023-01-31T12:42:40.645Z,100674.84
2023-01-31T12:45:58.355Z,100665.78
2023-01-31T12:53:08.172Z,100654.34
2023-01-31T12:56:28.213Z,100657.38
2023-01-31T13:00:07.930Z,100638.47
2023-01-31T13:03:21.619Z,100633.84
2023-01-31T13:06:20.056Z,100622.91
2023-01-31T13:09:11.491Z,100616.59
2023-01-31T13:12:15.632Z,100621.25
2023-01-31T13:15:04.417Z,100618.22
2023-01-31T13:17:42.205Z,100622.88
2023-01-31T13:20:12.097Z,100611.69
2023-01-31T13:23:14.086Z,100617.44
2023-01-31T13:26:09.634Z,100613.53
2023-01-31T13:29:03.219Z,100605.34
2023-01-31T13:32:00.743Z,100602.34
2023-01-31T13:34:51.213Z,100598.19
2023-01-31T13:37:22.273Z,100606.69
2023-01-31T13:40:01.861Z,100592.69
2023-01-31T13:42:30.183Z,100595.16
2023-01-31T13:45:11.186Z,100592.97
2023-01-31T13:47:56.218Z,100596.19
2023-01-31T13:50:54.249Z,100588.53
2023-01-31T13:53:42.282Z,100591.56
2023-01-31T13:56:50.888Z,100585.50
2023-01-31T13:59:30.712Z,100586.38
2023-01-31T14:02:17.693Z,100580.59
2023-01-31T14:04:48.055Z,100584.75
2023-01-31T14:07:24.000Z,100584.72
2023-01-31T14:09:56.874Z,100577.84
2023-01-31T14:12:39.814Z,100573.16
2023-01-31T14:15:51.169Z,100588.84
2023-01-31T14:18:46.243Z,100584.38
2023-01-31T14:21:31.653Z,100561.38
2023-01-31T14:24:06.334Z,100573.97
2023-01-31T14:26:42.142Z,100578.91
2023-01-31T14:29:27.315Z,100574.25
2023-01-31T14:31:58.844Z,100567.34
2023-01-31T14:34:32.768Z,100563.56
2023-01-31T14:37:59.952Z,100563.81
2023-01-31T14:40:53.253Z,100565.19
2023-01-31T14:44:20.653Z,100549.09
2023-01-31T14:47:31.552Z,100550.94
2023-01-31T14:50:35.579Z,100549.28
2023-01-31T14:53:40.257Z,100538.88
2023-01-31T14:56:43.986Z,100542.44
2023-01-31T14:59:46.544Z,100535.06
2023-01-31T15:02:51.336Z,100538.09
2023-01-31T15:05:33.103Z,100526.25
2023-01-31T15:08:13.402Z,100519.69
2023-01-31T15:11:40.985Z,100521.63
2023-01-31T15:14:45.638Z,100533.94
2023-01-31T15:17:38.389Z,100519.91
2023-01-31T15:20:41.190Z,100525.13
2023-01-31T15:23:24.747Z,100522.38
2023-01-31T15:25:59.905Z,100518.53
2023-01-31T15:28:42.224Z,100517.16
2023-01-31T15:31:34.032Z,100522.28
2023-01-31T15:34:23.314Z,100507.28
2023-01-31T15:37:06.965Z,100499.78
2023-01-31T15:39:55.512Z,100509.09
2023-01-31T15:42:31.206Z,100509.59
2023-01-31T15:45:30.874Z,100516.63
2023-01-31T15:48:18.616Z,100521.91
2023-01-31T15:51:00.172Z,100507.31
2023-01-31T15:53:33.021Z,100516.84
2023-01-31T15:56:04.280Z,100514.66
2023-01-31T15:58:38.246Z,100506.13
2023-01-31T16:01:19.479Z,100508.59
2023-01-31T16:03:58.126Z,100497.13
2023-01-31T16:06:34.574Z,100491.66
2023-01-31T16:09:07.944Z,100498.56
2023-01-31T16:11:38.668Z,100501.28
2023-01-31T16:14:11.565Z,100507.75
2023-01-31T16:16:45.019Z,100484.69
2023-01-31T16:19:31.155Z,100493.22
2023-01-31T16:22:02.677Z,100503.50
2023-01-31T16:24:33.001Z,100495.28
2023-01-31T16:27:17.930Z,100512.03
2023-01-31T16:29:57.662Z,100502.63
2023-01-31T16:32:43.922Z,100492.78
2023-01-31T16:35:28.280Z,100509.22
2023-01-31T16:38:19.122Z,100517.03
2023-01-31T16:40:55.603Z,100515.75
2023-01-31T16:43:32.310Z,100522.91
2023-01-31T16:46:22.164Z,100513.88
2023-01-31T16:49:32.366Z,100505.59
2023-01-31T16:52:29.778Z,100513.47
2023-01-31T16:55:02.613Z,100504.63
2023-01-31T16:57:37.524Z,100514.00
2023-01-31T17:00:28.740Z,100504.69
2023-01-31T17:03:01.687Z,100499.19
2023-01-31T17:05:47.482Z,100485.09
2023-01-31T17:08:22.617Z,100467.91
2023-01-31T17:10:52.729Z,100474.47
2023-01-31T17:13:27.084Z,100469.50
2023-01-31T17:15:54.467Z,100467.28
2023-01-31T17:18:22.797Z,100484.69
2023-01-31T17:20:53.224Z,100489.56
2023-01-31T17:23:21.320Z,100480.06
2023-01-31T17:25:51.709Z,100471.28
2023-01-31T17:28:22.172Z,100475.44
2023-01-31T17:30:52.369Z,100464.38
2023-01-31T17:33:22.459Z,100470.28
2023-01-31T17:35:52.611Z,100461.88
2023-01-31T17:38:20.991Z,100444.16
2023-01-31T17:40:50.703Z,100451.56
2023-01-31T17:43:22.808Z,100443.44
2023-01-31T17:45:53.117Z,100436.53
2023-01-31T17:48:26.718Z,100433.25
2023-01-31T17:50:57.256Z,100422.72
2023-01-31T17:53:30.266Z,100416.41
2023-01-31T17:56:04.607Z,100432.91
2023-01-31T17:58:33.684Z,100428.47
2023-01-31T18:01:03.801Z,100397.88
2023-01-31T18:03:32.055Z,100404.38
2023-01-31T18:06:09.428Z,100376.50
2023-01-31T18:08:38.648Z,100357.97
2023-01-31T18:11:16.942Z,100370.28
2023-01-31T18:13:48.086Z,100384.31
2023-01-31T18:16:21.609Z,100391.94
2023-01-31T18:18:53.412Z,100386.66
2023-01-31T18:21:25.136Z,100382.19
2023-01-31T18:23:57.224Z,100377.41
2023-01-31T18:26:26.865Z,100377.25
2023-01-31T18:28:57.573Z,100378.38
2023-01-31T18:31:26.711Z,100375.38
2023-01-31T18:33:55.041Z,100381.19
2023-01-31T18:36:23.335Z,100383.84
2023-01-31T18:38:52.135Z,100377.19
2023-01-31T18:41:23.347Z,100369.47
2023-01-31T18:43:51.527Z,100372.22
2023-01-31T18:46:21.260Z,100375.94
2023-01-31T18:48:48.625Z,100376.41
2023-01-31T18:51:17.283Z,100377.00
2023-01-31T18:53:47.804Z,100379.50
2023-01-31T18:56:23.697Z,100356.94
2023-01-31T18:58:54.454Z,100368.69
2023-01-31T19:01:28.642Z,100366.50
2023-01-31T19:03:58.457Z,100369.75
2023-01-31T19:06:36.333Z,100363.50
2023-01-31T19:09:09.450Z,100356.97
2023-01-31T19:11:40.408Z,100358.28
2023-01-31T19:14:16.060Z,100364.84
2023-01-31T19:16:45.156Z,100371.53
2023-01-31T19:19:15.903Z,100373.75
2023-01-31T19:21:45.832Z,100372.56
2023-01-31T19:24:16.172Z,100372.47
2023-01-31T19:26:46.054Z,100369.72
2023-01-31T19:29:17.735Z,100342.59
2023-01-31T19:31:46.812Z,100352.13
2023-01-31T19:34:16.608Z,100330.03
2023-01-31T19:36:46.825Z,100335.72
2023-01-31T19:39:16.897Z,100324.38
2023-01-31T19:41:46.810Z,100329.81
2023-01-31T19:44:14.604Z,100336.44
2023-01-31T19:46:43.984Z,100353.97
2023-01-31T19:49:13.343Z,100407.16
2023-01-31T19:51:43.496Z,100405.50
2023-01-31T19:54:18.081Z,100411.13
2023-01-31T19:56:47.827Z,100400.59
2023-01-31T19:59:15.156Z,100410.84
2023-01-31T20:01:44.959Z,100391.94
2023-01-31T20:04:14.827Z,100401.72
2023-01-31T20:06:44.724Z,100419.84
2023-01-31T20:09:20.058Z,100423.47
2023-01-31T20:11:51.249Z,100425.91
2023-01-31T20:14:21.003Z,100435.75
2023-01-31T20:16:50.745Z,100420.22
2023-01-31T20:19:22.619Z,100435.03
2023-01-31T20:21:52.038Z,100425.50
2023-01-31T20:24:21.737Z,100410.31
2023-01-31T20:26:51.871Z,100411.38
2023-01-31T20:29:21.703Z,100412.19
2023-01-31T20:31:51.806Z,100427.19
2023-01-31T20:34:20.058Z,100446.53
2023-01-31T20:36:48.559Z,100446.53
2023-01-31T20:39:16.960Z,100442.78
2023-01-31T20:41:45.485Z,100444.38
2023-01-31T20:44:13.893Z,100456.22
2023-01-31T20:46:42.212Z,100455.94
2023-01-31T20:49:10.705Z,100459.91
2023-01-31T20:51:39.077Z,100469.47
2023-01-31T20:54:07.589Z,100473.31
2023-01-31T20:56:35.999Z,100461.81
2023-01-31T20:59:04.624Z,100468.63
2023-01-31T21:01:33.114Z,100477.69
2023-01-31T21:04:01.910Z,100472.19
2023-01-31T21:06:30.452Z,100469.78
2023-01-31T21:08:58.556Z,100476.63
2023-01-31T21:11:27.156Z,100477.03
2023-01-31T21:13:55.614Z,100480.06
2023-01-31T21:16:24.434Z,100490.97
2023-01-31T21:18:52.367Z,100494.03
2023-01-31T21:21:23.843Z,100502.78
2023-01-31T21:23:57.170Z,100499.22
2023-01-31T21:26:27.288Z,100506.84
2023-01-31T21:28:54.689Z,100500.34
2023-01-31T21:31:24.844Z,100499.72
2023-01-31T21:33:56.475Z,100495.66
2023-01-31T21:36:26.136Z,100503.25
2023-01-31T21:38:56.023Z,100510.59
2023-01-31T21:41:44.511Z,100502.97
2023-01-31T21:44:14.748Z,100505.78
2023-01-31T21:46:42.940Z,100495.88
2023-01-31T21:49:11.295Z,100499.69
2023-01-31T21:51:39.840Z,100492.00
2023-01-31T21:54:08.874Z,100485.38
2023-01-31T21:56:36.588Z,100486.44
2023-01-31T21:59:05.138Z,100495.53
2023-01-31T22:01:36.394Z,100490.19
2023-01-31T22:04:05.167Z,100525.34
2023-01-31T22:06:41.867Z,100526.81
2023-01-31T22:09:14.119Z,100518.38
2023-01-31T22:11:47.596Z,100529.53
2023-01-31T22:14:18.120Z,100512.81
2023-01-31T22:16:47.069Z,100516.75
2023-01-31T22:19:15.097Z,100513.44
2023-01-31T22:21:45.209Z,100534.88
2023-01-31T22:24:14.790Z,100520.06
2023-01-31T22:26:45.486Z,100525.47
2023-01-31T22:29:16.279Z,100515.31
2023-01-31T22:31:45.710Z,100508.00
2023-01-31T22:34:17.225Z,100508.56
2023-01-31T22:36:46.257Z,100510.75
2023-01-31T22:39:16.236Z,100510.28
2023-01-31T22:41:46.277Z,100501.19
2023-01-31T22:44:15.819Z,100515.13
2023-01-31T22:51:57.627Z,100505.72
2023-01-31T22:54:27.687Z,100509.88
2023-01-31T22:56:57.531Z,100504.13
2023-01-31T22:59:27.382Z,100505.16
2023-01-31T23:01:57.237Z,100514.19
2023-01-31T23:04:27.165Z,100518.47
2023-01-31T23:06:56.881Z,100508.34
2023-01-31T23:09:26.717Z,100505.88
2023-01-31T23:11:56.627Z,100523.19
2023-01-31T23:14:26.970Z,100527.47
2023-01-31T23:17:15.268Z,100513.75
2023-01-31T23:19:44.639Z,100518.03
2023-01-31T23:22:15.447Z,100515.91
2023-01-31T23:24:45.434Z,100509.28
2023-01-31T23:27:15.651Z,100515.28
2023-01-31T23:29:45.593Z,100514.59
2023-01-31T23:32:15.385Z,100528.00
2023-01-31T23:34:45.064Z,100502.97
2023-01-31T23:37:16.393Z,100503.28
2023-01-31T23:39:45.047Z,100508.47
2023-01-31T23:42:18.835Z,100509.84
2023-01-31T23:44:48.951Z,100497.53
2023-01-31T23:47:18.530Z,100497.75
2023-01-31T23:49:46.637Z,100495.28
2023-01-31T23:52:14.338Z,100504.16
2023-01-31T23:54:42.865Z,100499.19
2023-01-31T23:57:11.862Z,100492.84
2023-01-31T23:59:39.748Z,100503.13
